Ana Sayfa
METAR-TAF:

METAR-TAF

Havaalanları :

Cidde, Suudi Arabistan

Enlem: 21-42N, Boylam: 039-11E, yükseklik: 15 m

Güncel hava durumu gözlemi

Rapor saat 19:00 UTC de 57 dakika önce yapıldı.
Rüzgar batı/kuzeybatıdan 6 kt
Sıcaklık 31°C
Nem 66%
Basınç 1007 hPa
Görüş mesafesi 10 km veya daha fazla
1500 m altında bulut yok ve kümülonimbus yok

METAR: OEJN 051900Z 30006KT CAVOK 31/24 Q1007 NOSIG

Saat: 22:57 (19:57 UTC)

Tahmin

Rapor saat 11:00 UTC de 8 saat ve 57 dakika önce yapıldı.
Ayın 05'si saat 12 UTC'den ayın 06'si saat 18 UTC'ye kadar geçerli Tahmin
Rüzgar batı/kuzeybatıdan 14 kt
Görüş mesafesi: 6000 m
4000 ft yükseklikte az bulutlu
Dönüşüyor
ayın 05'si saat 18 UTC'den ayın 05'si saat 20 UTC'ye kadar
Rüzgar doğu/kuzeydoğudan 6 kt

TAF: OEJN 051100Z 0512/0618 30014KT 6000 FEW040 BECMG 0518/0520 06006KT

4.000'den fazla havaalanı için hava durumu gözlemleri ve tahminleri (METAR ve TAF raporları).

Kullanılabilir istasyonlar harita üzerinde sarı ve kırmızı noktalarla gösterilir.

İstasyonun adını görmek için fareyi noktanın üzerinde gezdirin.

Sonrasında hava gözlem ve tahminlerini görmek için tıklayın.

Haritayı değiştirmek için: yaklaştırmak için siyah artı işaretli yeşil düğmeye ve uzaklaştırmak için de eksi işaretli düğmeye hızla tıklayın; bitişik haritalar için yeşil okları kullanın.


METAR-TAF: